Time;durP1;ratioP1;P1;durP2;ratioP2;P2;SDS_P1;SDS_P2;PMS_P1;PMS_P2;Temp;Humidity;BMP_temperature;BMP_pressure;BME280_temperature;BME280_humidity;BME280_pressure;Samples;Min_cycle;Max_cycle;Signal;HPM_P1;HPM_P2
2022/03/31 00:01:45;;;;;;;4.10;2.00;;;;;;;;;;4968609;28;20120;-91
2022/03/31 00:41:37;;;;;;;3.92;2.25;;;;;;;;;;4948104;28;20560;-91
2022/03/31 05:18:09;;;;;;;4.50;3.13;;;;;;;;;;1478683;23;20312;-79
2022/03/31 05:20:45;;;;;;;6.20;3.50;;;;;;;;;;4877756;29;20053;-80
2022/03/31 05:23:14;;;;;;;5.32;3.15;;;;;;;;;;4891109;29;20078;-79
2022/03/31 05:25:42;;;;;;;7.75;3.60;;;;;;;;;;4883502;29;20407;-81
2022/03/31 05:28:11;;;;;;;11.23;3.33;;;;;;;;;;4876945;29;20045;-79
2022/03/31 05:30:40;;;;;;;7.47;3.53;;;;;;;;;;4890309;29;20159;-81
2022/03/31 05:33:08;;;;;;;7.63;3.22;;;;;;;;;;4888398;29;20151;-78
2022/03/31 05:35:37;;;;;;;6.97;3.85;;;;;;;;;;4893351;29;20048;-79
2022/03/31 05:38:13;;;;;;;5.97;3.25;;;;;;;;;;4888525;29;20112;-79
2022/03/31 05:40:44;;;;;;;6.60;3.08;;;;;;;;;;4888978;29;20068;-78
2022/03/31 05:43:12;;;;;;;5.93;3.33;;;;;;;;;;4900993;29;20045;-80
2022/03/31 05:45:49;;;;;;;6.38;3.20;;;;;;;;;;4889739;29;20056;-80
2022/03/31 05:48:16;;;;;;;5.53;2.97;;;;;;;;;;4875914;29;20059;-80
2022/03/31 05:50:44;;;;;;;5.82;3.33;;;;;;;;;;4891826;29;20041;-80
2022/03/31 05:53:13;;;;;;;5.63;3.20;;;;;;;;;;4877985;29;20286;-81
2022/03/31 05:55:45;;;;;;;8.48;2.75;;;;;;;;;;4887129;29;20104;-82
2022/03/31 05:58:26;;;;;;;6.40;2.45;;;;;;;;;;4881118;29;20053;-80
2022/03/31 06:01:05;;;;;;;5.93;3.08;;;;;;;;;;4880414;29;20056;-79
2022/03/31 06:03:35;;;;;;;3.75;2.13;;;;;;;;;;4892366;29;20109;-81
2022/03/31 06:06:04;;;;;;;5.63;2.83;;;;;;;;;;4887289;29;20088;-79
2022/03/31 06:08:32;;;;;;;6.38;3.40;;;;;;;;;;4892359;29;20091;-80
2022/03/31 06:11:00;;;;;;;5.72;2.88;;;;;;;;;;4888067;29;20060;-80
2022/03/31 06:13:28;;;;;;;5.18;2.85;;;;;;;;;;4886999;29;21878;-80
2022/03/31 06:15:59;;;;;;;4.80;1.95;;;;;;;;;;4887731;29;20049;-80
2022/03/31 06:18:30;;;;;;;5.70;2.45;;;;;;;;;;4889562;29;20056;-81
2022/03/31 06:21:48;;;;;;;5.68;2.67;;;;;;;;;;4859848;29;20056;-80
2022/03/31 06:24:16;;;;;;;6.30;3.35;;;;;;;;;;4890292;29;20682;-80
2022/03/31 06:26:45;;;;;;;5.43;2.90;;;;;;;;;;4904623;29;20641;-80
2022/03/31 06:29:13;;;;;;;5.05;2.55;;;;;;;;;;4860106;29;20064;-80
2022/03/31 06:31:40;;;;;;;5.38;2.35;;;;;;;;;;4879768;29;21617;-80
2022/03/31 06:34:08;;;;;;;5.03;2.55;;;;;;;;;;4892075;29;20040;-81
2022/03/31 06:36:36;;;;;;;6.07;2.88;;;;;;;;;;4889232;29;20249;-80
2022/03/31 06:39:05;;;;;;;4.65;2.47;;;;;;;;;;4892770;29;20224;-80
2022/03/31 06:41:32;;;;;;;5.75;2.67;;;;;;;;;;4889037;29;20417;-79
2022/03/31 06:44:01;;;;;;;6.00;2.90;;;;;;;;;;4888832;29;20136;-79
2022/03/31 06:46:29;;;;;;;5.07;2.75;;;;;;;;;;4892686;29;20045;-79
2022/03/31 06:48:56;;;;;;;8.95;2.35;;;;;;;;;;4890075;29;20048;-80
2022/03/31 06:51:24;;;;;;;3.92;2.42;;;;;;;;;;4889307;29;20071;-79
2022/03/31 06:53:54;;;;;;;5.22;2.35;;;;;;;;;;4900121;29;20072;-80
2022/03/31 06:56:29;;;;;;;5.97;2.42;;;;;;;;;;4896183;29;20109;-79
2022/03/31 06:58:57;;;;;;;5.25;2.90;;;;;;;;;;4890177;29;20048;-81
2022/03/31 07:01:25;;;;;;;6.38;3.20;;;;;;;;;;4891648;29;20068;-80
2022/03/31 07:03:52;;;;;;;4.90;2.53;;;;;;;;;;4906387;29;20064;-79
2022/03/31 07:06:23;;;;;;;4.10;2.47;;;;;;;;;;4882157;29;20132;-79
2022/03/31 07:08:52;;;;;;;4.82;1.70;;;;;;;;;;4884206;29;20053;-80
2022/03/31 07:11:20;;;;;;;5.97;2.88;;;;;;;;;;4897365;29;20037;-79
2022/03/31 07:13:49;;;;;;;4.68;2.30;;;;;;;;;;4892874;29;20044;-79
2022/03/31 07:16:18;;;;;;;5.20;2.50;;;;;;;;;;4907403;29;20045;-80
2022/03/31 07:18:47;;;;;;;5.35;2.42;;;;;;;;;;4891880;29;20052;-79
2022/03/31 07:21:14;;;;;;;5.18;2.40;;;;;;;;;;4879129;29;20608;-80
2022/03/31 07:23:47;;;;;;;4.55;2.63;;;;;;;;;;4890936;29;20045;-79
2022/03/31 07:26:16;;;;;;;7.00;2.42;;;;;;;;;;4887025;29;20044;-79
2022/03/31 07:28:44;;;;;;;5.45;3.00;;;;;;;;;;4890522;29;20155;-79
2022/03/31 07:31:12;;;;;;;3.30;1.60;;;;;;;;;;4894644;29;20041;-80
2022/03/31 07:33:41;;;;;;;6.13;2.53;;;;;;;;;;4900072;29;20037;-80
2022/03/31 07:36:10;;;;;;;5.60;2.88;;;;;;;;;;4894651;29;20140;-80
2022/03/31 07:38:40;;;;;;;6.70;2.33;;;;;;;;;;4880746;29;20044;-80
2022/03/31 07:41:09;;;;;;;5.18;2.60;;;;;;;;;;4898265;29;20045;-80
2022/03/31 07:43:36;;;;;;;6.40;2.38;;;;;;;;;;4896178;29;20048;-80
2022/03/31 07:46:06;;;;;;;4.85;2.67;;;;;;;;;;4895938;29;20040;-80
2022/03/31 07:48:34;;;;;;;4.35;2.50;;;;;;;;;;4892704;29;20053;-79
2022/03/31 07:51:02;;;;;;;4.35;2.28;;;;;;;;;;4895658;29;20049;-80
2022/03/31 07:53:33;;;;;;;6.50;2.53;;;;;;;;;;4891454;29;20040;-80
2022/03/31 07:56:05;;;;;;;4.63;2.75;;;;;;;;;;4880319;29;20059;-81
2022/03/31 07:58:32;;;;;;;6.30;2.35;;;;;;;;;;4893443;29;20063;-80
2022/03/31 08:01:00;;;;;;;5.38;2.70;;;;;;;;;;4894858;29;20039;-79
2022/03/31 08:03:29;;;;;;;5.60;2.40;;;;;;;;;;4893377;29;20246;-81
2022/03/31 08:05:56;;;;;;;4.97;2.72;;;;;;;;;;4886110;29;20040;-79
2022/03/31 08:08:24;;;;;;;7.05;2.92;;;;;;;;;;4894175;29;20041;-80
2022/03/31 08:10:52;;;;;;;4.68;2.63;;;;;;;;;;4877235;29;20048;-80
2022/03/31 08:13:27;;;;;;;4.32;2.17;;;;;;;;;;4885119;29;20143;-80
2022/03/31 08:15:55;;;;;;;4.97;2.92;;;;;;;;;;4890047;29;20076;-80
2022/03/31 08:18:26;;;;;;;5.97;2.78;;;;;;;;;;4889531;29;20056;-79
2022/03/31 08:20:56;;;;;;;5.38;2.35;;;;;;;;;;4887592;29;20047;-80
2022/03/31 08:23:25;;;;;;;9.35;2.40;;;;;;;;;;4880734;29;20037;-80
2022/03/31 08:25:59;;;;;;;6.15;2.58;;;;;;;;;;4875713;29;20048;-80
2022/03/31 08:28:31;;;;;;;4.82;2.63;;;;;;;;;;4880087;29;20075;-80
2022/03/31 08:30:59;;;;;;;4.47;2.60;;;;;;;;;;4911852;29;20077;-80
2022/03/31 08:33:26;;;;;;;8.25;2.67;;;;;;;;;;4905945;29;20733;-80
2022/03/31 08:35:54;;;;;;;7.32;2.35;;;;;;;;;;4891667;29;20045;-81
2022/03/31 08:38:26;;;;;;;3.63;2.35;;;;;;;;;;4892024;29;20064;-80
2022/03/31 08:40:56;;;;;;;4.82;2.28;;;;;;;;;;4877994;29;20053;-81
2022/03/31 08:43:28;;;;;;;6.80;2.65;;;;;;;;;;4896244;29;20069;-80
2022/03/31 08:46:06;;;;;;;6.03;2.50;;;;;;;;;;4879400;29;20536;-80
2022/03/31 08:48:34;;;;;;;7.97;2.30;;;;;;;;;;4894787;29;20065;-79
2022/03/31 08:51:04;;;;;;;5.90;2.60;;;;;;;;;;4887530;29;20036;-80
2022/03/31 08:53:32;;;;;;;4.40;2.38;;;;;;;;;;4886957;29;20060;-80
2022/03/31 08:56:02;;;;;;;4.53;2.08;;;;;;;;;;4890823;29;20775;-80
2022/03/31 08:58:30;;;;;;;6.90;2.65;;;;;;;;;;4889455;29;20109;-79
2022/03/31 09:00:58;;;;;;;5.03;2.75;;;;;;;;;;4889588;29;20044;-79
2022/03/31 09:03:39;;;;;;;4.80;2.50;;;;;;;;;;4888523;29;20056;-79
2022/03/31 09:06:07;;;;;;;4.88;2.40;;;;;;;;;;4906350;29;20044;-79
2022/03/31 09:08:34;;;;;;;7.43;2.42;;;;;;;;;;4871968;29;20535;-79
2022/03/31 09:11:03;;;;;;;4.47;2.45;;;;;;;;;;4892947;29;20047;-80
2022/03/31 09:13:36;;;;;;;4.82;2.20;;;;;;;;;;4902163;29;20080;-79
2022/03/31 09:16:09;;;;;;;7.82;2.67;;;;;;;;;;4879762;29;20089;-81
2022/03/31 09:18:40;;;;;;;5.68;2.10;;;;;;;;;;4887316;29;20124;-79
2022/03/31 09:21:10;;;;;;;5.25;2.60;;;;;;;;;;4890202;29;20036;-80
2022/03/31 09:23:41;;;;;;;9.23;2.53;;;;;;;;;;4886180;29;20475;-80
2022/03/31 09:26:14;;;;;;;4.50;2.55;;;;;;;;;;4891814;29;20052;-80
2022/03/31 09:28:44;;;;;;;5.28;2.40;;;;;;;;;;4902871;29;20040;-80
2022/03/31 09:31:13;;;;;;;5.82;2.25;;;;;;;;;;4902148;29;20060;-79
2022/03/31 09:33:48;;;;;;;5.57;2.50;;;;;;;;;;4884955;29;20061;-79
2022/03/31 09:36:24;;;;;;;4.78;2.70;;;;;;;;;;4885534;29;20744;-79
2022/03/31 09:38:55;;;;;;;6.15;2.63;;;;;;;;;;4900838;29;20044;-78
2022/03/31 09:41:27;;;;;;;4.75;2.55;;;;;;;;;;4888558;29;20120;-79
2022/03/31 09:44:01;;;;;;;6.40;2.60;;;;;;;;;;4884771;29;20063;-80
2022/03/31 09:46:33;;;;;;;5.68;2.67;;;;;;;;;;4886820;29;20048;-79
2022/03/31 09:49:36;;;;;;;5.68;2.55;;;;;;;;;;4903899;29;20048;-79
2022/03/31 09:52:08;;;;;;;3.95;2.10;;;;;;;;;;4882096;29;20475;-79
2022/03/31 09:54:38;;;;;;;6.68;2.78;;;;;;;;;;4876320;29;20152;-80
2022/03/31 09:57:08;;;;;;;3.22;1.95;;;;;;;;;;4875350;29;20519;-80
2022/03/31 09:59:40;;;;;;;6.13;2.90;;;;;;;;;;4883794;29;20085;-79
2022/03/31 10:02:09;;;;;;;4.90;2.15;;;;;;;;;;4891229;29;20045;-80
2022/03/31 10:04:36;;;;;;;4.97;2.80;;;;;;;;;;4897678;29;20036;-80
2022/03/31 10:07:05;;;;;;;4.35;2.20;;;;;;;;;;4883886;29;20052;-80
2022/03/31 10:09:34;;;;;;;5.30;2.67;;;;;;;;;;4882989;29;20396;-79
2022/03/31 10:12:23;;;;;;;9.32;3.08;;;;;;;;;;4884296;29;20072;-80
2022/03/31 10:14:59;;;;;;;6.25;2.78;;;;;;;;;;4905523;29;20062;-80
2022/03/31 10:17:30;;;;;;;5.10;2.67;;;;;;;;;;4878583;29;20052;-79
2022/03/31 10:20:13;;;;;;;4.63;2.58;;;;;;;;;;4891452;29;20049;-79
2022/03/31 10:25:46;;;;;;;4.47;2.25;;;;;;;;;;4890766;29;20068;-79
2022/03/31 10:28:21;;;;;;;5.70;2.75;;;;;;;;;;4874978;29;20053;-80
2022/03/31 10:30:59;;;;;;;3.33;1.90;;;;;;;;;;4902153;29;20060;-79
2022/03/31 10:33:34;;;;;;;6.88;2.85;;;;;;;;;;4893688;29;20452;-79
2022/03/31 10:36:12;;;;;;;4.15;2.35;;;;;;;;;;4891364;29;20104;-79
2022/03/31 10:38:59;;;;;;;7.07;2.72;;;;;;;;;;4890531;29;20041;-80
2022/03/31 10:41:37;;;;;;;5.38;2.22;;;;;;;;;;4888670;29;21262;-77
2022/03/31 10:44:13;;;;;;;1.65;1.25;;;;;;;;;;4886161;29;20183;-78
2022/03/31 10:46:42;;;;;;;3.72;1.83;;;;;;;;;;4890223;29;20052;-79
2022/03/31 10:49:19;;;;;;;1.92;1.05;;;;;;;;;;4883706;29;20070;-78
2022/03/31 10:51:46;;;;;;;5.40;2.00;;;;;;;;;;4885531;29;20064;-79
2022/03/31 10:54:25;;;;;;;4.05;1.67;;;;;;;;;;4890191;29;20036;-78
2022/03/31 10:57:05;;;;;;;4.75;1.85;;;;;;;;;;4886848;29;20611;-78
2022/03/31 10:59:34;;;;;;;4.93;1.63;;;;;;;;;;4893166;29;20056;-79
2022/03/31 11:02:09;;;;;;;4.25;1.77;;;;;;;;;;4891835;29;20064;-79
2022/03/31 11:04:53;;;;;;;5.70;1.83;;;;;;;;;;4890592;29;20045;-77
2022/03/31 11:07:25;;;;;;;6.15;1.77;;;;;;;;;;4907058;29;20049;-77
2022/03/31 11:10:12;;;;;;;3.88;1.98;;;;;;;;;;4888940;29;20066;-78
2022/03/31 11:12:41;;;;;;;4.15;1.50;;;;;;;;;;4890830;29;20045;-80
2022/03/31 11:15:11;;;;;;;3.67;1.38;;;;;;;;;;4880528;29;20056;-79
2022/03/31 11:17:40;;;;;;;3.97;1.67;;;;;;;;;;4889342;29;20131;-80
2022/03/31 11:20:20;;;;;;;5.25;2.05;;;;;;;;;;4878676;29;20088;-79
2022/03/31 11:22:54;;;;;;;5.82;1.83;;;;;;;;;;4890879;29;20140;-78
2022/03/31 11:25:23;;;;;;;3.42;1.73;;;;;;;;;;4888267;29;20047;-80
2022/03/31 11:27:52;;;;;;;2.35;1.23;;;;;;;;;;4891632;29;20542;-79
2022/03/31 11:30:22;;;;;;;3.25;1.40;;;;;;;;;;4890448;29;20037;-79
2022/03/31 11:32:56;;;;;;;1.98;1.08;;;;;;;;;;4878799;29;20060;-80
2022/03/31 11:35:27;;;;;;;3.38;1.80;;;;;;;;;;4890501;29;20048;-80
2022/03/31 11:37:54;;;;;;;3.83;1.77;;;;;;;;;;4880438;29;20036;-80
2022/03/31 11:40:38;;;;;;;6.03;1.90;;;;;;;;;;4895178;29;20351;-79
2022/03/31 11:43:09;;;;;;;3.45;1.70;;;;;;;;;;4886423;29;20049;-79
2022/03/31 11:45:46;;;;;;;4.78;1.70;;;;;;;;;;4907359;29;20049;-79
2022/03/31 11:48:19;;;;;;;4.18;1.60;;;;;;;;;;4895117;29;20060;-79
2022/03/31 11:50:56;;;;;;;2.20;1.20;;;;;;;;;;4905357;29;20416;-79
2022/03/31 11:53:41;;;;;;;4.63;1.67;;;;;;;;;;4890222;29;20053;-80
2022/03/31 11:56:21;;;;;;;4.30;1.60;;;;;;;;;;4890033;29;20668;-79
2022/03/31 11:58:53;;;;;;;3.15;1.77;;;;;;;;;;4890026;29;20056;-80
2022/03/31 12:01:43;;;;;;;2.35;1.17;;;;;;;;;;4905252;29;20075;-79
2022/03/31 12:04:21;;;;;;;5.63;1.70;;;;;;;;;;4892251;29;20049;-80
2022/03/31 12:06:53;;;;;;;3.70;1.40;;;;;;;;;;4887330;29;20136;-81
2022/03/31 12:09:25;;;;;;;3.67;1.33;;;;;;;;;;4880623;29;20140;-78
2022/03/31 12:11:57;;;;;;;2.53;1.30;;;;;;;;;;4891723;29;20148;-79
2022/03/31 12:14:25;;;;;;;3.03;1.33;;;;;;;;;;4890413;29;20041;-79
2022/03/31 12:16:57;;;;;;;3.10;1.30;;;;;;;;;;4895577;29;20060;-80
2022/03/31 12:19:24;;;;;;;2.63;1.25;;;;;;;;;;4896644;29;20063;-79
2022/03/31 12:21:58;;;;;;;2.28;1.10;;;;;;;;;;4894149;29;20885;-81
2022/03/31 12:24:26;;;;;;;3.92;1.20;;;;;;;;;;4892140;29;20080;-81
2022/03/31 12:27:00;;;;;;;2.90;1.20;;;;;;;;;;4882423;29;20143;-82
2022/03/31 12:29:34;;;;;;;2.67;1.10;;;;;;;;;;4895813;29;20147;-80
2022/03/31 12:32:08;;;;;;;2.20;1.10;;;;;;;;;;4895063;29;20123;-80
2022/03/31 12:34:59;;;;;;;1.80;1.10;;;;;;;;;;4877642;29;20160;-80
2022/03/31 12:37:30;;;;;;;2.10;1.02;;;;;;;;;;4888894;29;20041;-79
2022/03/31 12:39:59;;;;;;;2.95;1.15;;;;;;;;;;4898252;29;20073;-80
2022/03/31 12:42:26;;;;;;;2.78;1.33;;;;;;;;;;4904174;29;20414;-80
2022/03/31 12:44:54;;;;;;;2.47;1.08;;;;;;;;;;4891974;29;20040;-80
2022/03/31 12:47:25;;;;;;;3.00;1.30;;;;;;;;;;4891910;29;20064;-79
2022/03/31 12:49:57;;;;;;;3.50;1.17;;;;;;;;;;4891314;29;20554;-81
2022/03/31 12:52:24;;;;;;;2.42;1.20;;;;;;;;;;4891357;29;20064;-79
2022/03/31 12:54:59;;;;;;;2.70;1.10;;;;;;;;;;4894629;29;20044;-81
2022/03/31 12:57:31;;;;;;;3.15;1.20;;;;;;;;;;4884571;29;20057;-81
2022/03/31 13:00:05;;;;;;;3.15;1.17;;;;;;;;;;4891765;29;20112;-80
2022/03/31 13:02:43;;;;;;;5.18;1.25;;;;;;;;;;4894440;29;20752;-80
2022/03/31 13:05:21;;;;;;;2.67;1.05;;;;;;;;;;4891397;29;20159;-80
2022/03/31 13:07:52;;;;;;;3.25;1.00;;;;;;;;;;4897312;29;20024;-80
2022/03/31 13:10:22;;;;;;;1.52;0.80;;;;;;;;;;4894171;29;20040;-80
2022/03/31 13:12:56;;;;;;;2.50;1.23;;;;;;;;;;4892227;29;20041;-78
2022/03/31 13:15:24;;;;;;;4.03;1.27;;;;;;;;;;4890444;29;20037;-80
2022/03/31 13:17:53;;;;;;;1.02;0.70;;;;;;;;;;4893139;29;20044;-80
2022/03/31 13:20:22;;;;;;;1.67;0.77;;;;;;;;;;4878355;29;20055;-81
2022/03/31 13:22:50;;;;;;;0.65;0.50;;;;;;;;;;4898175;29;20544;-82
2022/03/31 13:25:21;;;;;;;0.73;0.47;;;;;;;;;;4890168;29;20532;-82
2022/03/31 13:27:50;;;;;;;1.48;0.60;;;;;;;;;;4875595;29;20053;-81
2022/03/31 13:30:18;;;;;;;2.53;0.65;;;;;;;;;;4892235;29;20048;-80
2022/03/31 13:32:46;;;;;;;1.35;0.77;;;;;;;;;;4875483;29;20112;-84
2022/03/31 13:35:20;;;;;;;1.70;0.85;;;;;;;;;;4896568;29;20044;-82
2022/03/31 13:37:49;;;;;;;8.75;1.45;;;;;;;;;;4890859;29;20044;-81
2022/03/31 13:40:17;;;;;;;1.40;0.73;;;;;;;;;;4902625;29;20052;-81
2022/03/31 13:42:45;;;;;;;1.42;0.80;;;;;;;;;;4887671;29;20171;-82
2022/03/31 13:45:13;;;;;;;2.22;0.98;;;;;;;;;;4875494;29;20047;-81
2022/03/31 13:47:45;;;;;;;1.60;0.80;;;;;;;;;;4880067;29;20076;-82
2022/03/31 13:50:17;;;;;;;3.78;1.33;;;;;;;;;;4891491;29;20045;-81
2022/03/31 13:52:45;;;;;;;2.67;0.90;;;;;;;;;;4892471;29;20550;-82
2022/03/31 13:55:12;;;;;;;1.35;0.80;;;;;;;;;;4891999;29;20056;-83
2022/03/31 14:03:36;;;;;;;1.35;0.60;;;;;;;;;;4894261;29;20120;-83
2022/03/31 14:06:25;;;;;;;1.35;0.70;;;;;;;;;;4902914;29;20124;-83
2022/03/31 14:29:32;;;;;;;1.75;0.95;;;;;;;;;;6251547;23;20048;-93
2022/03/31 14:32:01;;;;;;;2.47;0.70;;;;;;;;;;6174525;23;20020;-92
2022/03/31 14:34:28;;;;;;;4.50;0.80;;;;;;;;;;6209259;22;20031;-94
2022/03/31 14:36:56;;;;;;;1.45;0.90;;;;;;;;;;6199750;23;20056;-93
2022/03/31 14:39:24;;;;;;;2.53;0.85;;;;;;;;;;6199994;23;20042;-93
2022/03/31 14:42:12;;;;;;;2.70;0.70;;;;;;;;;;6176639;23;20028;-94
2022/03/31 14:44:41;;;;;;;1.65;0.70;;;;;;;;;;6202181;23;20035;-93
2022/03/31 14:47:08;;;;;;;1.95;0.75;;;;;;;;;;6176986;23;20099;-94
2022/03/31 14:49:36;;;;;;;2.08;0.80;;;;;;;;;;6176962;23;20417;-93
2022/03/31 14:52:04;;;;;;;1.98;0.90;;;;;;;;;;6176724;23;20027;-93
2022/03/31 14:54:32;;;;;;;1.27;0.55;;;;;;;;;;6211689;22;20457;-93
2022/03/31 14:57:00;;;;;;;0.90;0.60;;;;;;;;;;6176645;23;20054;-94
2022/03/31 14:59:28;;;;;;;1.02;0.60;;;;;;;;;;6176804;23;20711;-93
2022/03/31 15:01:56;;;;;;;3.03;0.60;;;;;;;;;;6177675;23;20353;-90
2022/03/31 15:04:24;;;;;;;3.75;0.80;;;;;;;;;;6209461;22;20447;-91
2022/03/31 15:06:53;;;;;;;2.97;0.90;;;;;;;;;;6198753;23;20511;-90
2022/03/31 15:14:52;;;;;;;3.72;0.60;;;;;;;;;;6199256;23;19929;-90
2022/03/31 15:17:20;;;;;;;1.30;0.65;;;;;;;;;;6173898;23;20393;-90
2022/03/31 15:19:48;;;;;;;4.85;0.90;;;;;;;;;;6174192;23;20717;-90
2022/03/31 15:22:16;;;;;;;1.90;0.93;;;;;;;;;;6168792;23;20390;-90
2022/03/31 15:24:44;;;;;;;1.98;0.73;;;;;;;;;;6167539;23;20148;-90
2022/03/31 15:27:20;;;;;;;1.60;0.90;;;;;;;;;;6168682;23;20464;-90
2022/03/31 15:29:49;;;;;;;2.47;0.82;;;;;;;;;;6166807;23;20584;-90
2022/03/31 15:32:17;;;;;;;1.58;0.88;;;;;;;;;;6166990;23;20020;-90
2022/03/31 15:34:44;;;;;;;3.00;0.85;;;;;;;;;;6165771;23;20050;-90
2022/03/31 15:37:12;;;;;;;3.55;0.80;;;;;;;;;;6166388;23;20118;-90
2022/03/31 15:39:40;;;;;;;3.38;0.70;;;;;;;;;;6226946;23;20071;-90
2022/03/31 15:42:14;;;;;;;2.85;0.90;;;;;;;;;;6167776;23;20027;-90
2022/03/31 15:44:46;;;;;;;4.00;0.88;;;;;;;;;;6167520;23;20218;-90
2022/03/31 15:47:15;;;;;;;1.95;0.70;;;;;;;;;;6191496;23;20067;-90
2022/03/31 15:49:43;;;;;;;1.50;0.60;;;;;;;;;;6201679;23;20358;-90
2022/03/31 15:52:10;;;;;;;5.82;0.75;;;;;;;;;;6201303;23;20054;-90
2022/03/31 15:54:38;;;;;;;3.28;0.52;;;;;;;;;;6167732;23;20560;-89
2022/03/31 15:57:06;;;;;;;1.67;0.90;;;;;;;;;;6166950;23;20110;-90
2022/03/31 15:59:35;;;;;;;1.40;0.80;;;;;;;;;;6166300;23;20107;-90
2022/03/31 16:02:04;;;;;;;2.03;0.68;;;;;;;;;;6166368;23;20221;-89
2022/03/31 16:04:33;;;;;;;1.92;0.85;;;;;;;;;;6168759;23;20651;-92
2022/03/31 16:07:00;;;;;;;4.68;1.17;;;;;;;;;;6167566;23;20090;-90
2022/03/31 16:09:29;;;;;;;2.08;0.88;;;;;;;;;;6167327;23;20147;-90
2022/03/31 16:11:58;;;;;;;2.97;0.70;;;;;;;;;;6166768;23;20027;-89
2022/03/31 16:14:27;;;;;;;1.13;0.80;;;;;;;;;;6170520;23;20050;-89
2022/03/31 16:16:55;;;;;;;4.50;1.10;;;;;;;;;;6172199;23;20379;-89
2022/03/31 16:19:30;;;;;;;1.55;0.70;;;;;;;;;;6169995;23;20024;-89
2022/03/31 16:22:00;;;;;;;2.67;0.70;;;;;;;;;;6193062;23;20020;-89
2022/03/31 16:24:28;;;;;;;1.27;0.60;;;;;;;;;;6193003;23;20027;-89
2022/03/31 16:26:56;;;;;;;12.57;0.80;;;;;;;;;;6168445;23;20047;-89
2022/03/31 16:29:25;;;;;;;1.40;0.70;;;;;;;;;;6168430;23;20397;-90
2022/03/31 16:31:52;;;;;;;3.63;0.70;;;;;;;;;;6203313;23;20047;-89
2022/03/31 16:34:20;;;;;;;3.17;0.95;;;;;;;;;;6168144;23;20016;-89
2022/03/31 16:36:50;;;;;;;1.08;0.63;;;;;;;;;;6192284;23;20681;-89
2022/03/31 16:39:19;;;;;;;3.60;0.80;;;;;;;;;;6203410;23;20043;-89
2022/03/31 16:41:47;;;;;;;2.30;0.60;;;;;;;;;;6167895;23;20023;-89
2022/03/31 16:44:16;;;;;;;1.02;0.60;;;;;;;;;;6168196;23;20110;-89
2022/03/31 16:46:44;;;;;;;2.80;0.68;;;;;;;;;;6167883;23;20016;-89
2022/03/31 16:49:12;;;;;;;4.40;0.93;;;;;;;;;;6168271;23;20059;-88
2022/03/31 16:51:40;;;;;;;5.57;0.90;;;;;;;;;;6167831;23;20524;-89
2022/03/31 16:54:09;;;;;;;5.97;1.20;;;;;;;;;;6170289;23;20020;-89
2022/03/31 16:56:36;;;;;;;3.90;0.80;;;;;;;;;;6205071;23;20059;-88
2022/03/31 16:59:04;;;;;;;1.80;0.98;;;;;;;;;;6169209;23;20024;-88
2022/03/31 17:01:32;;;;;;;2.72;0.90;;;;;;;;;;6192491;23;20024;-88
2022/03/31 17:04:00;;;;;;;2.47;0.90;;;;;;;;;;6168194;23;20051;-88
2022/03/31 17:06:28;;;;;;;1.27;0.80;;;;;;;;;;6167913;23;20036;-88
2022/03/31 17:08:56;;;;;;;1.40;0.65;;;;;;;;;;6168104;23;20016;-88
2022/03/31 17:11:25;;;;;;;1.88;0.80;;;;;;;;;;6168033;23;20072;-88
2022/03/31 17:13:52;;;;;;;1.30;0.75;;;;;;;;;;6227889;23;20122;-88
2022/03/31 17:16:20;;;;;;;1.50;0.70;;;;;;;;;;6203198;23;20039;-88
2022/03/31 17:18:50;;;;;;;0.73;0.52;;;;;;;;;;6203226;23;20095;-87
2022/03/31 17:21:22;;;;;;;1.35;0.70;;;;;;;;;;6192044;23;20038;-88
2022/03/31 17:23:51;;;;;;;1.08;0.57;;;;;;;;;;6192687;23;20122;-88
2022/03/31 17:26:20;;;;;;;0.45;0.40;;;;;;;;;;6227816;23;20607;-88
2022/03/31 17:28:48;;;;;;;1.15;0.70;;;;;;;;;;6202813;23;20016;-88
2022/03/31 17:31:17;;;;;;;1.88;0.82;;;;;;;;;;6203154;23;20039;-88
2022/03/31 17:33:46;;;;;;;2.97;1.10;;;;;;;;;;6168346;23;20046;-87
2022/03/31 17:36:15;;;;;;;1.88;0.88;;;;;;;;;;6167655;23;20016;-87
2022/03/31 17:38:42;;;;;;;4.32;0.80;;;;;;;;;;6166875;23;20103;-87
2022/03/31 17:41:11;;;;;;;1.63;0.80;;;;;;;;;;6168202;23;20158;-87
2022/03/31 17:43:44;;;;;;;1.52;0.75;;;;;;;;;;6168170;23;20086;-87
2022/03/31 17:46:12;;;;;;;1.27;0.60;;;;;;;;;;6191814;23;20103;-87
2022/03/31 17:48:40;;;;;;;6.63;0.93;;;;;;;;;;6167685;23;20026;-87
2022/03/31 17:51:08;;;;;;;3.00;0.68;;;;;;;;;;6202708;23;20066;-87
2022/03/31 17:53:36;;;;;;;2.33;1.00;;;;;;;;;;6227991;23;20095;-87
2022/03/31 17:56:09;;;;;;;1.23;0.70;;;;;;;;;;6216608;23;20022;-87
2022/03/31 17:58:36;;;;;;;1.10;0.65;;;;;;;;;;6226956;23;20016;-87
2022/03/31 18:01:04;;;;;;;0.65;0.45;;;;;;;;;;6226999;23;20509;-87
2022/03/31 18:03:32;;;;;;;1.30;0.90;;;;;;;;;;6190070;23;20059;-87
2022/03/31 18:06:00;;;;;;;1.45;0.80;;;;;;;;;;6202585;23;20583;-87
2022/03/31 18:08:28;;;;;;;1.38;0.75;;;;;;;;;;6226659;23;20027;-87
2022/03/31 18:10:56;;;;;;;2.60;0.80;;;;;;;;;;6226820;23;20009;-87
2022/03/31 18:13:24;;;;;;;1.48;0.63;;;;;;;;;;6167282;23;20016;-87
2022/03/31 18:15:52;;;;;;;1.65;0.60;;;;;;;;;;6202425;23;20023;-87
2022/03/31 18:18:21;;;;;;;3.42;1.15;;;;;;;;;;6202354;23;20016;-87
2022/03/31 18:20:48;;;;;;;3.88;1.10;;;;;;;;;;6166947;23;20104;-87
2022/03/31 18:23:16;;;;;;;1.25;0.77;;;;;;;;;;6202477;23;20020;-87
2022/03/31 18:25:44;;;;;;;3.90;1.40;;;;;;;;;;6191713;23;20020;-87
2022/03/31 18:28:12;;;;;;;3.95;1.10;;;;;;;;;;6202296;23;20027;-86
2022/03/31 18:36:12;;;;;;;2.42;1.02;;;;;;;;;;6192306;23;20024;-87
2022/03/31 18:38:40;;;;;;;1.02;0.50;;;;;;;;;;6227096;23;20012;-87
2022/03/31 18:41:10;;;;;;;1.73;0.82;;;;;;;;;;6167221;23;20016;-86
2022/03/31 18:43:38;;;;;;;2.40;1.05;;;;;;;;;;6253520;23;20921;-86
2022/03/31 18:46:07;;;;;;;2.25;1.25;;;;;;;;;;6202688;23;20508;-86
2022/03/31 18:48:34;;;;;;;3.45;1.20;;;;;;;;;;6167709;23;20032;-86
2022/03/31 18:51:03;;;;;;;2.28;1.30;;;;;;;;;;6167005;23;20085;-86
2022/03/31 18:53:30;;;;;;;4.03;0.68;;;;;;;;;;6226357;23;20054;-87
2022/03/31 18:55:58;;;;;;;1.30;0.75;;;;;;;;;;6201774;23;20031;-86
2022/03/31 18:58:27;;;;;;;2.65;0.77;;;;;;;;;;6168397;23;20028;-87
2022/03/31 19:00:55;;;;;;;1.73;0.82;;;;;;;;;;6228580;23;20023;-86
2022/03/31 19:03:23;;;;;;;2.45;0.80;;;;;;;;;;6168613;23;20024;-86
2022/03/31 19:05:50;;;;;;;1.23;0.77;;;;;;;;;;6168624;23;20020;-86
2022/03/31 19:08:18;;;;;;;2.47;1.17;;;;;;;;;;6192897;23;20020;-86
2022/03/31 19:10:48;;;;;;;3.72;1.20;;;;;;;;;;6169176;23;20523;-86
2022/03/31 19:13:20;;;;;;;3.90;1.20;;;;;;;;;;6168687;23;20030;-86
2022/03/31 19:15:48;;;;;;;2.22;0.93;;;;;;;;;;6203945;23;20023;-86
2022/03/31 19:18:16;;;;;;;1.38;0.80;;;;;;;;;;6203590;23;20016;-86
2022/03/31 19:20:44;;;;;;;1.88;1.00;;;;;;;;;;6228818;23;20018;-85
2022/03/31 19:23:14;;;;;;;1.00;0.70;;;;;;;;;;6228838;23;20024;-84
2022/03/31 19:25:43;;;;;;;2.92;1.08;;;;;;;;;;6228373;23;20131;-85
2022/03/31 19:28:14;;;;;;;1.90;0.93;;;;;;;;;;6192431;23;20035;-83
2022/03/31 19:30:44;;;;;;;2.65;1.23;;;;;;;;;;6192651;23;20456;-84
2022/03/31 19:33:12;;;;;;;1.92;0.90;;;;;;;;;;6194112;23;20107;-84
2022/03/31 19:35:43;;;;;;;1.60;0.90;;;;;;;;;;6168798;23;20016;-84
2022/03/31 19:38:12;;;;;;;2.75;1.30;;;;;;;;;;6168576;23;20020;-84
2022/03/31 19:40:40;;;;;;;4.68;1.35;;;;;;;;;;6203534;23;20012;-84
2022/03/31 19:43:09;;;;;;;2.55;0.98;;;;;;;;;;6168344;23;20024;-84
2022/03/31 19:45:38;;;;;;;1.73;0.60;;;;;;;;;;6168779;23;20070;-84
2022/03/31 19:48:11;;;;;;;1.42;0.90;;;;;;;;;;6204555;23;20069;-84
2022/03/31 19:50:40;;;;;;;2.35;1.13;;;;;;;;;;6205532;23;20096;-84
2022/03/31 19:53:08;;;;;;;3.35;1.13;;;;;;;;;;6169353;23;20415;-84
2022/03/31 19:55:36;;;;;;;3.45;0.90;;;;;;;;;;6168952;23;20393;-84
2022/03/31 19:58:04;;;;;;;2.33;0.90;;;;;;;;;;6193481;23;20024;-84
2022/03/31 20:00:32;;;;;;;1.75;0.73;;;;;;;;;;6227908;23;20446;-84
2022/03/31 20:03:00;;;;;;;3.97;1.10;;;;;;;;;;6228435;23;20050;-84
2022/03/31 20:05:32;;;;;;;1.90;1.00;;;;;;;;;;6204227;23;20020;-84
2022/03/31 20:08:08;;;;;;;1.23;0.73;;;;;;;;;;6255387;23;20024;-84
2022/03/31 20:10:36;;;;;;;1.58;0.80;;;;;;;;;;6169408;23;20027;-84
2022/03/31 20:13:06;;;;;;;2.88;1.08;;;;;;;;;;6229430;23;20020;-84
2022/03/31 20:15:34;;;;;;;4.38;1.50;;;;;;;;;;6169924;23;20020;-84
2022/03/31 20:18:03;;;;;;;4.10;1.45;;;;;;;;;;6170187;23;20779;-84
2022/03/31 20:20:31;;;;;;;2.88;1.30;;;;;;;;;;6169405;23;20389;-84
2022/03/31 20:22:58;;;;;;;1.63;0.98;;;;;;;;;;6229071;23;20020;-84
2022/03/31 20:25:26;;;;;;;2.88;1.15;;;;;;;;;;6229133;23;20024;-84
2022/03/31 20:27:56;;;;;;;2.42;1.40;;;;;;;;;;6169420;23;20030;-84
2022/03/31 20:30:26;;;;;;;2.20;1.20;;;;;;;;;;6169903;23;20111;-84
2022/03/31 20:32:55;;;;;;;2.05;1.10;;;;;;;;;;6230390;23;20016;-84
2022/03/31 20:35:22;;;;;;;1.95;0.90;;;;;;;;;;6194264;23;20841;-84
2022/03/31 20:37:50;;;;;;;4.20;1.20;;;;;;;;;;6169858;23;20074;-84
2022/03/31 20:40:20;;;;;;;2.47;1.02;;;;;;;;;;6204294;23;20020;-84
2022/03/31 20:42:47;;;;;;;1.08;0.63;;;;;;;;;;6229135;23;20020;-84
2022/03/31 20:45:14;;;;;;;3.50;1.17;;;;;;;;;;6204155;23;20441;-84
2022/03/31 20:47:42;;;;;;;4.88;1.05;;;;;;;;;;6205433;23;20074;-84
2022/03/31 20:50:10;;;;;;;2.22;1.00;;;;;;;;;;6204739;23;20055;-84
2022/03/31 20:52:38;;;;;;;2.63;1.38;;;;;;;;;;6228629;23;20454;-83
2022/03/31 20:55:07;;;;;;;3.38;1.52;;;;;;;;;;6228705;23;20020;-83